Time;durP1;ratioP1;P1;durP2;ratioP2;P2;SDS_P1;SDS_P2;PMS_P1;PMS_P2;Temp;Humidity;BMP_temperature;BMP_pressure;BME280_temperature;BME280_humidity;BME280_pressure;Samples;Min_cycle;Max_cycle;Signal;HPM_P1;HPM_P2
2022/07/26 00:03:05;;;;;;;6.32;1.45;;;22.20;85.90;;;;;;10620820;27;20030;-67
2022/07/26 00:08:09;;;;;;;4.63;1.45;;;22.10;85.90;;;;;;10622291;27;20088;-67
2022/07/26 00:13:10;;;;;;;4.07;1.38;;;22.10;86.00;;;;;;10634582;27;20027;-67
2022/07/26 00:18:13;;;;;;;4.57;1.42;;;22.10;86.00;;;;;;10627799;27;20019;-67
2022/07/26 00:23:14;;;;;;;5.63;1.55;;;22.10;86.10;;;;;;10628260;27;20042;-67
2022/07/26 00:28:15;;;;;;;3.70;1.20;;;22.10;86.20;;;;;;10630314;27;20072;-64
2022/07/26 00:33:15;;;;;;;3.67;1.23;;;22.10;86.30;;;;;;10629309;27;20091;-67
2022/07/26 00:38:16;;;;;;;3.50;1.20;;;22.10;86.40;;;;;;10632202;27;20038;-68
2022/07/26 00:43:17;;;;;;;2.08;1.20;;;22.00;86.40;;;;;;10621755;27;20073;-65
2022/07/26 00:48:18;;;;;;;4.55;1.10;;;22.00;86.50;;;;;;10609390;27;20120;-67
2022/07/26 00:53:20;;;;;;;5.93;1.65;;;22.00;86.60;;;;;;10620078;27;20027;-64
2022/07/26 00:58:21;;;;;;;1.98;1.40;;;22.00;86.70;;;;;;10625479;27;20023;-66
2022/07/26 01:03:21;;;;;;;5.50;1.58;;;22.00;86.70;;;;;;10626230;27;20034;-67
2022/07/26 01:08:22;;;;;;;2.60;1.17;;;21.90;86.80;;;;;;10629511;27;20295;-66
2022/07/26 01:13:23;;;;;;;6.28;1.88;;;21.90;86.80;;;;;;10622805;27;20027;-64
2022/07/26 01:18:23;;;;;;;5.10;1.60;;;21.90;86.90;;;;;;10611953;27;20101;-65
2022/07/26 01:23:24;;;;;;;3.92;1.20;;;21.90;86.90;;;;;;10618682;27;20224;-64
2022/07/26 01:28:25;;;;;;;5.43;1.50;;;21.80;87.00;;;;;;10623678;27;20408;-62
2022/07/26 01:33:26;;;;;;;3.83;1.42;;;21.80;87.10;;;;;;10626269;27;20397;-67
2022/07/26 01:38:28;;;;;;;5.97;1.52;;;21.80;87.10;;;;;;10632768;27;20408;-66
2022/07/26 01:43:28;;;;;;;6.05;1.58;;;21.80;87.20;;;;;;10622840;27;20495;-65
2022/07/26 01:48:30;;;;;;;5.95;1.60;;;21.70;87.20;;;;;;10628640;27;20051;-63
2022/07/26 01:53:31;;;;;;;5.05;1.40;;;21.70;87.40;;;;;;10631104;27;20050;-69
2022/07/26 01:58:31;;;;;;;5.07;1.35;;;21.70;87.50;;;;;;10634862;27;21097;-67
2022/07/26 02:03:32;;;;;;;3.90;1.63;;;21.70;87.60;;;;;;10633794;27;20035;-67
2022/07/26 02:08:33;;;;;;;8.43;1.67;;;21.70;87.70;;;;;;10636218;27;20046;-65
2022/07/26 02:13:39;;;;;;;6.55;2.08;;;21.70;87.80;;;;;;10634425;27;20118;-68
2022/07/26 02:18:41;;;;;;;3.47;1.50;;;21.60;87.90;;;;;;10634870;27;20016;-66
2022/07/26 02:23:42;;;;;;;5.13;1.38;;;21.60;88.00;;;;;;10634920;27;20047;-67
2022/07/26 02:28:43;;;;;;;4.40;1.50;;;21.60;88.00;;;;;;10633357;27;20503;-68
2022/07/26 02:33:43;;;;;;;5.22;1.58;;;21.60;88.10;;;;;;10635828;27;20367;-67
2022/07/26 02:38:44;;;;;;;3.67;1.17;;;21.60;88.10;;;;;;10636553;27;20393;-67
2022/07/26 02:43:45;;;;;;;3.33;1.50;;;21.60;88.20;;;;;;10632450;27;20115;-66
2022/07/26 02:48:45;;;;;;;8.38;1.60;;;21.50;88.20;;;;;;10641630;27;20130;-66
2022/07/26 02:53:46;;;;;;;3.42;1.50;;;21.50;88.20;;;;;;10628102;27;20359;-65
2022/07/26 02:58:47;;;;;;;3.25;1.42;;;21.50;88.30;;;;;;10630402;27;20070;-68
2022/07/26 03:03:47;;;;;;;3.90;1.08;;;21.50;88.40;;;;;;10630408;27;20023;-65
2022/07/26 03:08:48;;;;;;;2.83;1.30;;;21.50;88.40;;;;;;10629087;27;20409;-69
2022/07/26 03:13:49;;;;;;;3.15;1.30;;;21.50;88.50;;;;;;10636532;27;20033;-68
2022/07/26 03:18:50;;;;;;;2.53;1.38;;;21.50;88.50;;;;;;10633175;27;20568;-65
2022/07/26 03:23:50;;;;;;;2.92;1.20;;;21.40;88.50;;;;;;10630821;27;20084;-68
2022/07/26 03:28:51;;;;;;;2.90;1.20;;;21.40;88.50;;;;;;10625575;27;20039;-67
2022/07/26 03:33:52;;;;;;;3.58;1.42;;;21.40;88.70;;;;;;10634123;27;20019;-68
2022/07/26 03:38:53;;;;;;;3.58;1.33;;;21.40;88.70;;;;;;10627601;27;20402;-65
2022/07/26 03:43:53;;;;;;;4.20;1.70;;;21.40;88.70;;;;;;10627183;27;20039;-68
2022/07/26 03:48:54;;;;;;;2.13;1.00;;;21.40;88.80;;;;;;10625335;27;20520;-68
2022/07/26 03:53:55;;;;;;;3.13;1.35;;;21.40;88.80;;;;;;10631377;27;20122;-64
2022/07/26 03:59:02;;;;;;;2.17;1.42;;;21.40;88.90;;;;;;10627982;27;20031;-63
2022/07/26 04:04:03;;;;;;;3.67;1.30;;;21.40;88.90;;;;;;10620565;27;20027;-68
2022/07/26 04:09:05;;;;;;;2.40;1.13;;;21.40;89.00;;;;;;10632325;27;20596;-64
2022/07/26 04:14:06;;;;;;;3.55;1.20;;;21.30;89.10;;;;;;10632694;27;20030;-67
2022/07/26 04:19:07;;;;;;;1.55;1.25;;;21.30;89.20;;;;;;10638943;27;20026;-62
2022/07/26 04:24:08;;;;;;;4.32;1.20;;;21.30;89.40;;;;;;10629586;27;20422;-66
2022/07/26 04:29:08;;;;;;;2.35;1.05;;;21.30;89.40;;;;;;10599588;27;20062;-68
2022/07/26 04:34:09;;;;;;;1.50;0.98;;;21.30;89.50;;;;;;10559913;27;20482;-69
2022/07/26 04:39:10;;;;;;;1.45;1.02;;;21.30;89.70;;;;;;10553164;27;20054;-69
2022/07/26 04:44:10;;;;;;;1.92;0.85;;;21.30;90.10;;;;;;10558968;27;20023;-69
2022/07/26 04:49:12;;;;;;;1.92;0.98;;;21.30;89.90;;;;;;10567073;27;20316;-69
2022/07/26 04:54:14;;;;;;;3.25;0.85;;;21.80;90.10;;;;;;10556552;27;20552;-69
2022/07/26 04:59:16;;;;;;;2.88;1.00;;;21.30;90.00;;;;;;10558141;27;20566;-68
2022/07/26 05:04:17;;;;;;;2.92;1.15;;;21.30;90.00;;;;;;10561514;27;20235;-69
2022/07/26 05:09:17;;;;;;;1.20;0.90;;;21.30;90.00;;;;;;10554165;27;20571;-69
2022/07/26 05:14:18;;;;;;;3.25;1.13;;;21.30;90.10;;;;;;10538084;27;20018;-69
2022/07/26 05:19:19;;;;;;;4.43;1.33;;;21.30;90.10;;;;;;10558729;27;20049;-66
2022/07/26 05:24:20;;;;;;;2.35;1.00;;;21.20;90.10;;;;;;10553106;27;20274;-61
2022/07/26 05:29:20;;;;;;;2.38;0.95;;;21.20;90.10;;;;;;10554645;27;20699;-69
2022/07/26 05:34:23;;;;;;;2.22;1.00;;;21.20;90.20;;;;;;10565473;27;20134;-69
2022/07/26 05:39:25;;;;;;;5.18;1.05;;;21.20;90.10;;;;;;10570768;27;20031;-69
2022/07/26 05:44:26;;;;;;;1.98;0.73;;;21.20;90.20;;;;;;10566808;27;20042;-69
2022/07/26 05:49:27;;;;;;;2.55;1.00;;;21.20;90.20;;;;;;10567561;27;20071;-66
2022/07/26 05:54:28;;;;;;;1.88;0.93;;;21.20;90.20;;;;;;10566782;27;20126;-69
2022/07/26 05:59:28;;;;;;;2.45;0.77;;;21.20;90.20;;;;;;10555014;27;21847;-68
2022/07/26 06:04:29;;;;;;;1.20;0.68;;;21.20;90.20;;;;;;10566427;27;20119;-68
2022/07/26 06:09:30;;;;;;;1.70;0.88;;;21.20;90.20;;;;;;10550835;27;20171;-63
2022/07/26 06:14:31;;;;;;;1.70;0.70;;;21.20;90.20;;;;;;10556854;27;20039;-64
2022/07/26 06:19:32;;;;;;;1.40;0.80;;;21.20;90.10;;;;;;10551927;27;20457;-63
2022/07/26 06:24:33;;;;;;;2.42;0.80;;;21.20;90.20;;;;;;10559168;27;20027;-66
2022/07/26 06:29:34;;;;;;;0.77;0.70;;;21.20;90.20;;;;;;10555353;27;20153;-67
2022/07/26 06:34:35;;;;;;;0.85;0.70;;;21.20;90.20;;;;;;10553535;27;20139;-66
2022/07/26 06:39:35;;;;;;;3.70;0.70;;;21.00;90.20;;;;;;10550916;27;20042;-67
2022/07/26 06:44:36;;;;;;;1.40;0.60;;;21.00;90.20;;;;;;10561358;27;20042;-70
2022/07/26 06:49:37;;;;;;;2.80;0.90;;;21.00;90.20;;;;;;9979146;27;15071539;-62
2022/07/26 06:54:37;;;;;;;3.13;0.65;;;21.10;90.10;;;;;;10558009;27;20058;-69
2022/07/26 06:59:38;;;;;;;3.35;0.95;;;21.10;90.00;;;;;;10558474;27;20199;-69
2022/07/26 07:04:39;;;;;;;3.35;0.77;;;21.10;90.00;;;;;;10544670;27;20035;-68
2022/07/26 07:09:39;;;;;;;1.17;0.70;;;21.10;89.80;;;;;;10549440;27;20062;-69
2022/07/26 07:14:40;;;;;;;3.00;0.55;;;21.10;89.70;;;;;;10562857;27;20031;-68
2022/07/26 07:19:41;;;;;;;2.85;0.70;;;21.10;89.70;;;;;;10551437;27;20492;-69
2022/07/26 07:24:42;;;;;;;0.40;0.40;;;21.10;89.70;;;;;;10543185;27;20111;-69
2022/07/26 07:29:42;;;;;;;0.95;0.50;;;21.10;89.70;;;;;;10560990;27;20311;-69
2022/07/26 07:34:45;;;;;;;2.58;0.65;;;21.10;89.70;;;;;;10562298;27;20374;-69
2022/07/26 07:39:45;;;;;;;1.33;0.50;;;21.10;89.60;;;;;;10542422;27;20707;-69
2022/07/26 07:44:48;;;;;;;3.08;0.30;;;21.10;89.60;;;;;;10558367;27;20042;-69
2022/07/26 07:49:49;;;;;;;3.88;0.70;;;21.10;89.60;;;;;;10559284;27;20451;-69
2022/07/26 07:54:50;;;;;;;0.70;0.30;;;21.10;89.50;;;;;;10534495;27;20038;-69
2022/07/26 07:59:50;;;;;;;3.03;0.63;;;21.10;89.30;;;;;;10552841;27;20585;-70
2022/07/26 09:23:21;;;;;;;0.82;0.57;;;21.30;88.00;;;;;;11702001;22;20380;-66
2022/07/26 09:28:28;;;;;;;0.47;0.30;;;21.40;87.90;;;;;;10506906;28;20122;-69
2022/07/26 09:33:48;;;;;;;1.67;0.50;;;21.40;87.80;;;;;;10511653;28;20028;-69
2022/07/26 09:38:57;;;;;;;1.17;0.43;;;21.40;87.50;;;;;;10503738;28;20043;-69
2022/07/26 09:44:18;;;;;;;1.55;0.55;;;21.50;87.50;;;;;;10522617;28;20417;-69
2022/07/26 09:49:20;;;;;;;0.98;0.35;;;21.50;87.40;;;;;;10512262;28;20255;-69
2022/07/26 09:54:32;;;;;;;1.00;0.32;;;21.50;87.40;;;;;;10506400;28;20082;-70
2022/07/26 09:59:33;;;;;;;1.27;0.50;;;21.40;87.30;;;;;;10507600;28;20031;-69
2022/07/26 10:10:07;;;;;;;1.58;0.47;;;21.40;87.30;;;;;;11547601;22;20525;-70
2022/07/26 10:15:47;;;;;;;3.13;0.63;;;21.40;87.20;;;;;;10511727;27;20129;-69
2022/07/26 10:20:50;;;;;;;0.65;0.28;;;21.50;87.00;;;;;;10509965;27;20549;-69
2022/07/26 10:25:51;;;;;;;1.95;0.47;;;21.50;87.00;;;;;;10518360;27;20167;-69
2022/07/26 10:31:12;;;;;;;3.25;0.47;;;21.50;87.00;;;;;;10519231;27;20861;-70
2022/07/26 10:36:33;;;;;;;0.57;0.30;;;21.40;87.00;;;;;;10517935;27;20130;-69
2022/07/26 10:41:45;;;;;;;1.88;0.50;;;21.40;87.00;;;;;;10515527;27;20032;-71
2022/07/26 10:47:08;;;;;;;1.90;0.50;;;21.30;87.10;;;;;;10517824;27;20031;-70
2022/07/26 10:52:19;;;;;;;1.25;0.50;;;21.40;87.10;;;;;;10521350;27;20450;-70
2022/07/26 10:57:20;;;;;;;0.77;0.50;;;21.40;87.10;;;;;;10515761;27;20526;-69
2022/07/26 11:02:26;;;;;;;2.25;0.70;;;21.40;86.90;;;;;;10518778;27;20031;-69
2022/07/26 11:07:28;;;;;;;2.17;0.75;;;21.50;86.70;;;;;;10514418;27;20047;-69
2022/07/26 11:12:28;;;;;;;1.40;0.47;;;21.50;86.60;;;;;;10508899;27;20622;-70
2022/07/26 11:17:30;;;;;;;2.50;0.50;;;21.50;86.60;;;;;;10514843;27;20327;-70
2022/07/26 11:22:32;;;;;;;1.80;0.47;;;21.50;86.50;;;;;;10509904;27;20024;-69
2022/07/26 11:27:33;;;;;;;3.40;0.68;;;21.50;86.40;;;;;;10511139;27;20722;-69
2022/07/26 11:32:33;;;;;;;1.55;0.50;;;21.50;86.30;;;;;;10516189;27;20035;-69
2022/07/26 11:37:34;;;;;;;1.73;0.60;;;21.60;86.20;;;;;;10511356;27;20406;-70
2022/07/26 11:42:35;;;;;;;0.98;0.50;;;21.60;86.10;;;;;;10513516;27;20147;-69
2022/07/26 11:47:35;;;;;;;3.20;0.77;;;21.60;86.70;;;;;;10502315;27;20866;-62
2022/07/26 11:52:36;;;;;;;2.20;0.52;;;21.60;86.00;;;;;;10504809;27;20507;-62
2022/07/26 11:57:37;;;;;;;6.20;0.95;;;21.60;85.80;;;;;;10514273;27;20588;-64
2022/07/26 12:02:37;;;;;;;7.68;0.80;;;21.60;85.00;;;;;;10514709;27;20027;-64
2022/07/26 12:07:50;;;;;;;2.42;0.90;;;21.50;84.70;;;;;;10512218;27;20051;-64
2022/07/26 12:13:12;;;;;;;4.25;1.05;;;21.50;84.60;;;;;;10508118;27;20314;-64
2022/07/26 12:18:21;;;;;;;2.70;0.60;;;21.50;83.70;;;;;;10502455;27;20624;-64
2022/07/26 12:23:23;;;;;;;4.38;1.13;;;21.60;83.50;;;;;;10499460;27;20027;-64
2022/07/26 12:28:43;;;;;;;4.43;0.88;;;21.50;83.30;;;;;;10513899;27;20089;-64
2022/07/26 12:33:48;;;;;;;4.90;0.90;;;21.50;81.80;;;;;;10508533;27;20063;-64
2022/07/26 12:38:52;;;;;;;2.85;0.70;;;21.50;82.70;;;;;;10498806;27;20809;-65
2022/07/26 12:43:53;;;;;;;1.75;0.60;;;21.60;82.50;;;;;;10503498;27;20430;-64
2022/07/26 12:48:54;;;;;;;2.08;0.90;;;21.70;82.10;;;;;;10504370;27;20130;-64
2022/07/26 12:53:54;;;;;;;3.53;1.33;;;21.70;81.90;;;;;;10504174;27;20457;-64
2022/07/26 12:58:59;;;;;;;3.65;0.70;;;21.80;81.50;;;;;;10503579;27;20736;-65
2022/07/26 13:04:00;;;;;;;3.05;0.90;;;21.80;81.00;;;;;;10503108;27;20613;-64
2022/07/26 13:09:01;;;;;;;3.33;0.77;;;21.80;80.70;;;;;;10517534;27;20600;-65
2022/07/26 13:14:02;;;;;;;3.03;0.88;;;21.90;80.30;;;;;;10517544;27;20363;-64
2022/07/26 13:19:02;;;;;;;1.83;0.70;;;21.90;80.00;;;;;;10505390;27;20051;-62
2022/07/26 13:24:03;;;;;;;3.92;1.00;;;21.90;79.60;;;;;;10498085;28;20437;-63
2022/07/26 13:29:04;;;;;;;2.55;0.77;;;21.90;79.50;;;;;;10498706;28;20659;-63
2022/07/26 13:34:05;;;;;;;4.80;1.33;;;21.80;79.30;;;;;;10497693;28;20586;-63
2022/07/26 13:39:05;;;;;;;1.75;0.65;;;21.90;79.20;;;;;;10501517;28;20024;-63
2022/07/26 13:44:06;;;;;;;3.28;0.85;;;21.90;79.00;;;;;;10489749;28;20299;-62
2022/07/26 13:49:07;;;;;;;4.00;0.82;;;21.90;79.50;;;;;;10513853;27;20059;-65
2022/07/26 13:54:08;;;;;;;2.67;1.42;;;22.00;78.80;;;;;;10527527;27;20031;-65
2022/07/26 13:59:09;;;;;;;2.58;0.88;;;22.10;78.80;;;;;;10516714;27;20036;-66
2022/07/26 14:04:10;;;;;;;7.50;0.80;;;22.20;78.60;;;;;;10517181;27;20047;-65
2022/07/26 14:09:12;;;;;;;3.28;1.00;;;22.30;78.60;;;;;;10500849;27;20242;-63
2022/07/26 14:14:12;;;;;;;2.88;0.68;;;22.30;78.40;;;;;;10509984;27;20158;-64
2022/07/26 14:19:13;;;;;;;4.18;0.98;;;22.30;78.40;;;;;;10500338;27;20035;-63
2022/07/26 14:24:14;;;;;;;3.38;0.68;;;22.50;78.10;;;;;;10509415;27;20039;-65
2022/07/26 14:29:14;;;;;;;2.40;0.70;;;22.60;77.80;;;;;;10504661;27;20054;-64
2022/07/26 14:34:15;;;;;;;5.15;1.58;;;22.80;76.90;;;;;;10504018;27;20113;-62
2022/07/26 14:39:16;;;;;;;4.85;0.73;;;23.10;74.70;;;;;;10506439;27;20216;-62
2022/07/26 14:44:17;;;;;;;1.50;0.52;;;22.70;73.00;;;;;;10504650;27;20031;-64
2022/07/26 14:49:18;;;;;;;3.83;1.50;;;22.30;73.00;;;;;;10501697;27;20447;-62
2022/07/26 14:54:18;;;;;;;2.25;0.90;;;22.40;73.60;;;;;;10500785;27;20027;-64
2022/07/26 14:59:19;;;;;;;5.70;0.85;;;22.60;72.50;;;;;;10506278;27;20042;-64
2022/07/26 15:04:20;;;;;;;5.38;1.00;;;22.30;72.10;;;;;;10498363;27;20132;-64
2022/07/26 15:09:21;;;;;;;3.92;0.90;;;21.80;72.40;;;;;;10510805;27;20044;-65
2022/07/26 15:14:21;;;;;;;3.85;0.70;;;21.90;71.80;;;;;;10509471;27;20097;-65
2022/07/26 15:19:22;;;;;;;2.72;0.70;;;22.10;71.20;;;;;;10510573;27;20035;-64
2022/07/26 15:24:23;;;;;;;4.40;1.00;;;22.70;71.00;;;;;;10519931;27;20497;-64
2022/07/26 15:29:24;;;;;;;2.50;0.95;;;23.00;70.00;;;;;;10500997;27;20138;-64
2022/07/26 15:34:24;;;;;;;2.72;0.90;;;23.30;69.90;;;;;;10507172;27;20030;-65
2022/07/26 15:39:25;;;;;;;2.38;1.02;;;23.40;68.50;;;;;;10504704;27;20028;-65
2022/07/26 15:44:26;;;;;;;1.67;0.57;;;23.80;67.50;;;;;;10503626;27;20729;-65
2022/07/26 15:49:27;;;;;;;2.55;0.70;;;22.80;68.00;;;;;;10507705;27;20035;-64
2022/07/26 15:54:27;;;;;;;2.92;0.60;;;22.00;67.50;;;;;;10500211;27;20309;-64
2022/07/26 15:59:28;;;;;;;1.23;0.57;;;21.50;69.10;;;;;;10483809;27;20249;-64
2022/07/26 16:04:29;;;;;;;5.50;1.02;;;21.30;68.70;;;;;;10505491;27;20030;-63
2022/07/26 16:09:29;;;;;;;3.25;0.98;;;21.20;69.30;;;;;;10521666;27;20051;-63
2022/07/26 16:14:30;;;;;;;1.85;0.50;;;21.20;69.20;;;;;;10514956;27;20042;-64
2022/07/26 16:19:31;;;;;;;3.30;0.80;;;21.10;68.30;;;;;;10509581;27;20035;-65
2022/07/26 16:24:32;;;;;;;3.28;0.68;;;21.00;68.80;;;;;;10512883;27;20035;-64
2022/07/26 16:29:33;;;;;;;1.40;0.50;;;21.00;68.80;;;;;;10497194;27;20134;-64
2022/07/26 16:34:34;;;;;;;1.35;0.50;;;21.10;68.80;;;;;;10507404;27;20023;-64
2022/07/26 16:39:35;;;;;;;2.72;0.50;;;21.10;69.20;;;;;;10500251;27;20560;-64
2022/07/26 16:44:36;;;;;;;1.60;0.65;;;21.40;69.50;;;;;;10507190;27;20034;-64
2022/07/26 16:49:37;;;;;;;2.10;0.80;;;21.10;69.70;;;;;;10490639;27;20524;-65
2022/07/26 16:54:40;;;;;;;2.78;0.95;;;21.00;70.00;;;;;;10494385;27;20040;-65
2022/07/26 16:59:40;;;;;;;0.88;0.60;;;21.00;70.30;;;;;;10495555;27;20019;-71
2022/07/26 17:04:41;;;;;;;2.45;0.75;;;21.00;70.60;;;;;;10504864;27;20071;-64
2022/07/26 17:09:42;;;;;;;3.60;0.80;;;21.00;71.00;;;;;;10503669;27;20622;-64
2022/07/26 17:14:42;;;;;;;2.42;0.80;;;20.80;71.50;;;;;;10500669;27;20035;-64
2022/07/26 17:19:43;;;;;;;1.92;0.60;;;20.70;72.30;;;;;;10503678;27;20099;-64
2022/07/26 17:24:44;;;;;;;2.58;0.73;;;20.50;73.40;;;;;;10473626;28;20070;-64
2022/07/26 17:29:45;;;;;;;3.60;0.77;;;20.30;74.70;;;;;;10500872;28;20587;-65
2022/07/26 17:34:46;;;;;;;6.93;0.60;;;20.10;75.40;;;;;;10492136;28;20131;-65
2022/07/26 17:39:46;;;;;;;3.05;0.60;;;20.10;75.60;;;;;;10494485;28;20029;-64
2022/07/26 17:44:48;;;;;;;2.63;0.50;;;20.00;75.10;;;;;;10499372;28;20592;-64
2022/07/26 17:49:48;;;;;;;2.97;0.98;;;19.80;75.10;;;;;;10490416;28;20052;-63
2022/07/26 17:54:49;;;;;;;1.23;0.57;;;19.70;75.20;;;;;;10498689;28;20039;-64
2022/07/26 17:59:50;;;;;;;3.70;0.60;;;19.60;75.10;;;;;;10503688;28;20035;-62
2022/07/26 18:04:51;;;;;;;0.88;0.40;;;19.10;75.00;;;;;;10495809;28;20902;-63
2022/07/26 18:09:51;;;;;;;0.82;0.50;;;19.60;75.20;;;;;;10499069;28;20519;-63
2022/07/26 18:14:52;;;;;;;3.72;1.23;;;19.60;75.10;;;;;;10497073;28;20057;-64
2022/07/26 18:19:52;;;;;;;1.92;0.50;;;19.50;75.30;;;;;;10498864;28;20121;-64
2022/07/26 18:24:53;;;;;;;1.20;0.50;;;19.50;75.30;;;;;;10501773;28;20029;-64
2022/07/26 18:29:55;;;;;;;2.30;0.65;;;19.40;75.50;;;;;;10499004;28;20044;-63
2022/07/26 18:34:55;;;;;;;1.52;0.40;;;19.30;75.80;;;;;;10504118;27;20031;-64
2022/07/26 18:39:58;;;;;;;4.72;1.40;;;19.30;76.00;;;;;;10522795;27;20328;-64
2022/07/26 18:44:59;;;;;;;1.77;0.57;;;19.40;76.20;;;;;;10517244;27;20898;-64
2022/07/26 18:50:00;;;;;;;0.98;0.45;;;19.30;76.20;;;;;;10515141;27;20047;-64
2022/07/26 18:55:05;;;;;;;2.05;0.70;;;19.30;76.30;;;;;;10502997;27;20205;-63
2022/07/26 19:00:07;;;;;;;1.40;0.55;;;19.30;76.60;;;;;;12423721;22;20348;31
2022/07/26 19:05:08;;;;;;;1.35;0.50;;;19.40;76.70;;;;;;10410901;28;20686;-60
2022/07/26 19:10:10;;;;;;;1.90;0.60;;;19.60;76.40;;;;;;10413464;28;20691;-62
2022/07/26 19:15:12;;;;;;;2.58;0.43;;;19.80;76.30;;;;;;10413327;28;20539;-66
2022/07/26 19:20:13;;;;;;;1.25;0.50;;;19.80;76.10;;;;;;10414639;28;20615;-61
2022/07/26 19:25:15;;;;;;;1.58;0.50;;;20.10;76.00;;;;;;10406789;28;20070;-60
2022/07/26 19:30:15;;;;;;;2.38;0.57;;;20.20;75.90;;;;;;10412309;28;20121;-61
2022/07/26 19:35:16;;;;;;;2.60;0.50;;;20.20;75.80;;;;;;10413389;28;20201;-61
2022/07/26 19:40:17;;;;;;;1.20;0.60;;;20.30;75.90;;;;;;10412962;28;20384;-67
2022/07/26 19:45:17;;;;;;;0.93;0.50;;;20.40;75.90;;;;;;10411303;28;20422;-60
2022/07/26 19:50:18;;;;;;;2.10;1.00;;;20.40;75.90;;;;;;10409655;28;20143;-66
2022/07/26 19:55:19;;;;;;;0.88;0.52;;;20.60;76.10;;;;;;10419168;28;20036;-62
2022/07/26 20:00:21;;;;;;;1.65;0.50;;;20.50;76.10;;;;;;10425474;28;20040;-68
2022/07/26 20:05:22;;;;;;;2.38;0.70;;;20.50;76.10;;;;;;10465805;28;20119;-68
2022/07/26 20:10:22;;;;;;;1.60;0.50;;;20.50;76.20;;;;;;10460592;28;20352;-67
2022/07/26 20:15:24;;;;;;;1.75;0.55;;;20.50;76.20;;;;;;10500999;28;20109;-67
2022/07/26 20:20:25;;;;;;;2.80;0.60;;;20.50;76.30;;;;;;10520106;28;20058;-65
2022/07/26 20:25:26;;;;;;;1.10;0.65;;;20.50;76.40;;;;;;10516210;28;20487;-61
2022/07/26 20:30:27;;;;;;;1.80;0.60;;;20.50;76.50;;;;;;10498018;28;20037;-59
2022/07/26 20:35:28;;;;;;;1.58;0.73;;;20.50;76.60;;;;;;10520711;28;20509;-67
2022/07/26 20:40:29;;;;;;;1.77;0.52;;;20.50;76.70;;;;;;10518435;28;20359;-67
2022/07/26 20:45:30;;;;;;;1.08;0.70;;;20.50;76.80;;;;;;10520084;28;20027;-67
2022/07/26 20:50:31;;;;;;;1.58;0.55;;;20.50;76.80;;;;;;10518760;28;20032;-67
2022/07/26 20:55:32;;;;;;;0.75;0.60;;;20.50;76.90;;;;;;10517044;28;20028;-67
2022/07/26 21:00:33;;;;;;;4.78;0.80;;;20.40;77.00;;;;;;10519846;28;20047;-68
2022/07/26 21:05:33;;;;;;;0.82;0.47;;;20.40;77.00;;;;;;10517852;28;20028;-68
2022/07/26 21:10:34;;;;;;;1.60;0.63;;;20.40;77.20;;;;;;10519121;28;20093;-68
2022/07/26 21:15:35;;;;;;;1.67;0.65;;;20.40;77.20;;;;;;10519525;28;20046;-68
2022/07/26 21:20:35;;;;;;;4.43;0.98;;;20.40;77.30;;;;;;10501247;28;20540;-69
2022/07/26 21:25:36;;;;;;;2.58;0.82;;;20.40;77.30;;;;;;10518458;28;20618;-68
2022/07/26 21:30:37;;;;;;;1.63;0.60;;;20.30;77.30;;;;;;10518408;28;20131;-68
2022/07/26 21:35:39;;;;;;;1.10;0.63;;;20.30;77.40;;;;;;10521034;28;20024;-67
2022/07/26 21:40:40;;;;;;;1.98;0.60;;;20.30;77.50;;;;;;10518281;28;20101;-68
2022/07/26 21:45:41;;;;;;;1.02;0.60;;;20.30;77.60;;;;;;10519438;28;20163;-65
2022/07/26 21:50:41;;;;;;;1.52;0.63;;;20.30;77.60;;;;;;10519729;28;20040;-68
2022/07/26 21:55:42;;;;;;;0.77;0.52;;;20.20;77.60;;;;;;10518795;28;20025;-65
2022/07/26 22:00:43;;;;;;;2.55;0.50;;;20.20;77.70;;;;;;10515628;28;20718;-62
2022/07/26 22:05:45;;;;;;;1.48;0.60;;;20.20;77.80;;;;;;10515044;28;20093;-67
2022/07/26 22:10:46;;;;;;;2.35;0.73;;;20.20;77.80;;;;;;10514798;28;20046;-68
2022/07/26 22:15:47;;;;;;;1.50;0.60;;;20.20;77.80;;;;;;10526587;28;20028;-67
2022/07/26 22:20:48;;;;;;;2.15;0.60;;;20.20;77.90;;;;;;10525455;28;20044;-65
2022/07/26 22:25:49;;;;;;;2.05;0.70;;;20.10;77.80;;;;;;10525547;28;20768;-65
2022/07/26 22:30:49;;;;;;;1.60;0.60;;;20.10;78.00;;;;;;10523607;28;20044;-67
2022/07/26 22:35:51;;;;;;;1.67;0.70;;;20.10;77.90;;;;;;10527052;28;20059;-65
2022/07/26 22:40:52;;;;;;;1.63;0.63;;;20.10;77.90;;;;;;10525647;28;20028;-66
2022/07/26 22:45:52;;;;;;;2.20;0.60;;;20.10;78.00;;;;;;10527224;28;20149;-67
2022/07/26 22:50:53;;;;;;;1.35;0.43;;;20.00;77.90;;;;;;10525633;28;20040;-65
2022/07/26 22:55:54;;;;;;;1.90;0.70;;;20.10;78.00;;;;;;10522646;28;20542;-67
2022/07/26 23:00:54;;;;;;;1.42;0.70;;;20.00;78.00;;;;;;10526343;28;20501;-64
2022/07/26 23:05:55;;;;;;;2.92;0.70;;;20.00;78.00;;;;;;10525613;28;20071;-67
2022/07/26 23:10:56;;;;;;;0.90;0.52;;;20.00;78.00;;;;;;10522324;28;20068;-65
2022/07/26 23:15:57;;;;;;;1.77;0.85;;;20.00;78.10;;;;;;10523782;28;20119;-68
2022/07/26 23:20:58;;;;;;;2.33;0.52;;;20.00;78.10;;;;;;10522481;28;20256;-68
2022/07/26 23:25:59;;;;;;;1.40;0.63;;;19.90;78.10;;;;;;10524535;28;20036;-67
2022/07/26 23:31:00;;;;;;;1.25;0.70;;;19.90;78.20;;;;;;10494512;28;20048;-65
2022/07/26 23:36:00;;;;;;;1.70;0.60;;;19.90;78.20;;;;;;10524751;28;20052;-67
2022/07/26 23:41:01;;;;;;;1.95;0.68;;;19.90;78.20;;;;;;10523692;28;20541;-67
2022/07/26 23:46:02;;;;;;;2.80;0.70;;;19.90;78.30;;;;;;10524836;28;20100;-66
2022/07/26 23:51:02;;;;;;;1.40;0.63;;;19.90;78.40;;;;;;10520463;28;20130;-65
2022/07/26 23:56:03;;;;;;;1.20;0.60;;;19.80;78.40;;;;;;10522116;28;20301;-64
